OKA weather

Naha Airport
Naha, Okinawa Prefecture, Japan

Public forecast

Using degrees Celsius for public forecast. Weather courtesy of forecast.io.

Current aviation weather report (METAR) for Naha Airport

Retrieved 2020/01/20 08:30 UTC (3 minutes ago):

ROAH 200830Z 36004KT 340V060 9999 FEW020 SCT040 BKN090 17/13 Q1021

Aviation forecast (TAF) for Naha Airport

Retrieved 2020/01/20 06:30 UTC (2 hours ago):

TAF ROAH 200505Z 2006/2112 03008KT 9999 FEW025 BKN040